Accueil
METAR-TAF:

METAR-TAF

Aéroports :

Aéroport international Roi-Abdelaziz

Djeddah, Arabie saoudite

latitude: 21-42N, longitude: 039-11E, altitude: 15 m

Observation

Le bulletin a été fait il y a 17 minutes, à 11:00 UTC
Vent 13 kt de ouest
Température 40°C
Humidité 32%
Pression 1002 hPa
Visibilité 10 km ou plus
Quelques nuages à une hauteur de 4000 ft

METAR: OEJN 201100Z 28013KT 9999 FEW040 40/20 Q1002 NOSIG

Heure: 14:17 (11:17 UTC)

Prévision

Le bulletin a été fait il y a 6 heures et 17 minutes, à 05:00 UTC
Prévision valable du 20 à 06 UTC au 21 à 12 UTC
Vent 15 kt de ouest/nord-ouest
Visibilité: 7000 m
Quelques nuages à une hauteur de 4000 ft
Nuages épars à une hauteur de 10000 ft
Evoluant progressivement
du 20 à 19 UTC au 20 à 21 UTC
Vent 6 kt de nord/nord-est

TAF: OEJN 200500Z 2006/2112 29015KT 7000 FEW040 SCT100 BECMG 2019/2021 03006KT

Observations et prévisions météorologiques de plus de 4000 aéroports (messages METAR et TAF).

Les stations disponibles sont représentées par des disques jaunes et rouges sur la carte.

Passer la souris dessus pour voir le nom de la station.

Cliquer dessus pour voir les observations et prévisions météorologiques.

Pour changer de carte: cliquez sur les boutons verts avec une croix noire pour zoomer, sur le bouton vert avec un tiret pour effectuer un zoom arrière, ou sur les flèches vertes pour les cartes adjacentes.


METAR-TAF: